Time;durP1;ratioP1;P1;durP2;ratioP2;P2;SDS_P1;SDS_P2;PMS_P1;PMS_P2;Temp;Humidity;BMP_temperature;BMP_pressure;BME280_temperature;BME280_humidity;BME280_pressure;Samples;Min_cycle;Max_cycle;Signal;HPM_P1;HPM_P2
2021/12/03 00:01:21;;;;;;;;;;;;;;;2.21;100.00;98450.66;5008577;28;20318;-65
2021/12/03 00:03:47;;;;;;;;;;;;;;;1.94;100.00;98439.84;5006931;28;19931;-66
2021/12/03 00:06:14;;;;;;;;;;;;;;;1.62;100.00;98440.88;5007668;28;20378;-66
2021/12/03 00:08:40;;;;;;;;;;;;;;;1.57;100.00;98442.59;5008312;28;19984;-66
2021/12/03 00:11:05;;;;;;;;;;;;;;;1.93;100.00;98448.31;5008822;28;20447;-65
2021/12/03 00:13:36;;;;;;;;;;;;;;;1.95;100.00;98439.00;5009898;28;19944;-66
2021/12/03 00:16:02;;;;;;;;;;;;;;;1.76;100.00;98442.50;5011686;28;19941;-66
2021/12/03 00:18:27;;;;;;;;;;;;;;;1.60;100.00;98431.59;5010299;28;19925;-66
2021/12/03 00:20:53;;;;;;;;;;;;;;;1.67;100.00;98433.25;5011523;28;19913;-66
2021/12/03 00:23:19;;;;;;;;;;;;;;;1.85;100.00;98435.69;5001558;28;19929;-66
2021/12/03 00:25:44;;;;;;;;;;;;;;;1.67;100.00;98426.47;5000296;28;19956;-66
2021/12/03 00:28:10;;;;;;;;;;;;;;;1.75;100.00;98425.56;5000492;28;19997;-66
2021/12/03 00:30:37;;;;;;;;;;;;;;;1.86;100.00;98426.34;5001096;28;19922;-66
2021/12/03 00:33:03;;;;;;;;;;;;;;;1.74;100.00;98421.38;5001104;28;20477;-66
2021/12/03 00:35:28;;;;;;;;;;;;;;;1.75;100.00;98421.34;4999538;28;19913;-67
2021/12/03 00:37:53;;;;;;;;;;;;;;;2.03;100.00;98416.94;4999013;28;19991;-66
2021/12/03 00:40:21;;;;;;;;;;;;;;;1.94;100.00;98419.53;5000085;28;19929;-67
2021/12/03 00:42:50;;;;;;;;;;;;;;;1.45;100.00;98422.34;5000235;28;20704;-66
2021/12/03 00:45:15;;;;;;;;;;;;;;;1.56;100.00;98419.78;5001288;28;19953;-67
2021/12/03 00:47:41;;;;;;;;;;;;;;;1.24;100.00;98413.16;5001003;28;20409;-66
2021/12/03 00:50:11;;;;;;;;;;;;;;;0.76;100.00;98420.91;4998385;28;20401;-66
2021/12/03 00:52:36;;;;;;;;;;;;;;;0.70;100.00;98425.13;5000554;28;20323;-66
2021/12/03 00:55:08;;;;;;;;;;;;;;;1.37;100.00;98436.75;4993602;28;19925;-66
2021/12/03 00:57:33;;;;;;;;;;;;;;;1.23;100.00;98422.47;5000656;28;19921;-66
2021/12/03 01:00:03;;;;;;;;;;;;;;;1.35;100.00;98428.34;5000890;28;19921;-66
2021/12/03 01:02:28;;;;;;;;;;;;;;;1.48;100.00;98422.31;4999362;28;19921;-66
2021/12/03 01:04:54;;;;;;;;;;;;;;;1.67;100.00;98426.47;5000171;28;20308;-66
2021/12/03 01:07:22;;;;;;;;;;;;;;;1.72;100.00;98423.06;5002121;28;19926;-67
2021/12/03 01:09:53;;;;;;;;;;;;;;;1.61;100.00;98418.88;5004928;28;19917;-67
2021/12/03 01:12:22;;;;;;;;;;;;;;;1.73;100.00;98424.75;5004430;28;19925;-67
2021/12/03 01:14:47;;;;;;;;;;;;;;;1.83;100.00;98419.59;5004181;28;19922;-67
2021/12/03 01:17:16;;;;;;;;;;;;;;;2.02;100.00;98425.41;5002908;28;19917;-67
2021/12/03 01:19:41;;;;;;;;;;;;;;;1.75;100.00;98423.03;5004811;28;19918;-67
2021/12/03 01:22:06;;;;;;;;;;;;;;;1.99;100.00;98425.44;5001950;28;19929;-67
2021/12/03 01:24:32;;;;;;;;;;;;;;;1.97;100.00;98429.66;5002851;28;19921;-66
2021/12/03 01:26:57;;;;;;;;;;;;;;;1.76;100.00;98423.03;5004198;28;19927;-67
2021/12/03 01:29:23;;;;;;;;;;;;;;;1.68;100.00;98420.53;5004780;28;20382;-67
2021/12/03 01:31:50;;;;;;;;;;;;;;;1.73;100.00;98429.81;5004059;28;19921;-67
2021/12/03 01:34:15;;;;;;;;;;;;;;;1.91;100.00;98437.31;5003117;28;19967;-67
2021/12/03 01:36:41;;;;;;;;;;;;;;;2.11;100.00;98436.34;5003058;28;19992;-67
2021/12/03 01:39:07;;;;;;;;;;;;;;;1.82;100.00;98437.38;5003743;28;20007;-67
2021/12/03 01:41:33;;;;;;;;;;;;;;;1.98;100.00;98436.41;5002988;28;19914;-67
2021/12/03 01:44:02;;;;;;;;;;;;;;;1.74;100.00;98434.06;5002821;28;19960;-67
2021/12/03 01:46:29;;;;;;;;;;;;;;;1.84;100.00;98440.75;4993094;28;19925;-67
2021/12/03 01:49:00;;;;;;;;;;;;;;;1.73;100.00;98440.81;5002129;28;20012;-68
2021/12/03 01:51:30;;;;;;;;;;;;;;;1.99;100.00;98440.66;4999160;28;19925;-65
2021/12/03 01:53:56;;;;;;;;;;;;;;;1.89;100.00;98449.19;5000875;28;19917;-66
2021/12/03 01:56:22;;;;;;;;;;;;;;;1.79;100.00;98448.41;4999233;28;20290;-65
2021/12/03 01:58:51;;;;;;;;;;;;;;;1.90;100.00;98455.13;5000295;28;20409;-66
2021/12/03 02:01:18;;;;;;;;;;;;;;;1.81;100.00;98445.84;5000829;28;19928;-66
2021/12/03 02:03:47;;;;;;;;;;;;;;;1.76;100.00;98448.44;4985182;28;19926;-66
2021/12/03 02:06:13;;;;;;;;;;;;;;;1.82;100.00;98452.59;4999717;28;19921;-66
2021/12/03 02:08:39;;;;;;;;;;;;;;;2.00;100.00;98449.94;4999312;28;19922;-67
2021/12/03 02:11:06;;;;;;;;;;;;;;;1.71;100.00;98450.16;5000111;28;20995;-66
2021/12/03 02:13:31;;;;;;;;;;;;;;;1.48;100.00;98452.78;5000081;28;20408;-66
2021/12/03 02:15:57;;;;;;;;;;;;;;;1.76;100.00;98461.13;5000037;28;19964;-67
2021/12/03 02:18:23;;;;;;;;;;;;;;;1.61;100.00;98453.56;4999734;28;19921;-66
2021/12/03 02:20:58;;;;;;;;;;;;;;;1.50;100.00;98466.31;4998167;28;20685;-66
2021/12/03 02:23:24;;;;;;;;;;;;;;;1.24;100.00;98464.72;5007724;28;20574;-67
2021/12/03 02:25:49;;;;;;;;;;;;;;;0.65;100.00;98485.13;5000409;28;19921;-66
2021/12/03 02:28:15;;;;;;;;;;;;;;;0.53;100.00;98499.47;4996199;28;19933;-66
2021/12/03 02:30:41;;;;;;;;;;;;;;;0.19;100.00;98508.72;4998338;28;19929;-66
2021/12/03 02:33:06;;;;;;;;;;;;;;;0.40;100.00;98520.56;5003474;28;19948;-65
2021/12/03 02:35:32;;;;;;;;;;;;;;;0.87;100.00;98517.22;5004439;28;19914;-65
2021/12/03 02:37:57;;;;;;;;;;;;;;;0.60;100.00;98520.59;5002506;28;20032;-64
2021/12/03 02:40:25;;;;;;;;;;;;;;;0.57;100.00;98526.50;5004893;28;19921;-65
2021/12/03 02:42:52;;;;;;;;;;;;;;;0.19;100.00;98532.34;5004844;28;19968;-65
2021/12/03 02:45:18;;;;;;;;;;;;;;;1.01;100.00;98527.31;5004944;28;19917;-65
2021/12/03 02:47:43;;;;;;;;;;;;;;;0.77;100.00;98526.47;5004998;28;19921;-65
2021/12/03 02:50:09;;;;;;;;;;;;;;;0.50;100.00;98529.03;5006180;28;19925;-65
2021/12/03 02:52:35;;;;;;;;;;;;;;;0.57;100.00;98533.25;5005220;28;19971;-65
2021/12/03 02:55:00;;;;;;;;;;;;;;;0.77;100.00;98539.16;5001894;28;20379;-64
2021/12/03 02:57:26;;;;;;;;;;;;;;;0.98;100.00;98527.31;5002627;28;19928;-65
2021/12/03 02:59:51;;;;;;;;;;;;;;;0.91;100.00;98525.63;5002401;28;20018;-65
2021/12/03 03:02:16;;;;;;;;;;;;;;;0.75;100.00;98527.34;5002833;28;19917;-65
2021/12/03 03:04:45;;;;;;;;;;;;;;;0.76;100.00;98527.34;5001910;28;19925;-65
2021/12/03 03:07:10;;;;;;;;;;;;;;;0.89;100.00;98523.13;4986369;28;19918;-65
2021/12/03 03:09:36;;;;;;;;;;;;;;;0.37;100.00;98523.94;5003146;28;19926;-64
2021/12/03 03:12:01;;;;;;;;;;;;;;;1.18;100.00;98530.66;5003526;28;19928;-65
2021/12/03 03:14:27;;;;;;;;;;;;;;;1.08;100.00;98523.94;5003145;28;19928;-64
2021/12/03 03:16:53;;;;;;;;;;;;;;;1.21;100.00;98524.78;5002408;28;19928;-65
2021/12/03 03:19:19;;;;;;;;;;;;;;;1.50;100.00;98534.81;5002674;28;20030;-65
2021/12/03 03:21:45;;;;;;;;;;;;;;;1.01;100.00;98524.78;5002682;28;20079;-65
2021/12/03 03:24:11;;;;;;;;;;;;;;;0.74;100.00;98538.34;5003221;28;20393;-65
2021/12/03 03:26:37;;;;;;;;;;;;;;;0.87;100.00;98550.16;4983549;28;20470;-64
2021/12/03 03:29:04;;;;;;;;;;;;;;;1.14;100.00;98538.28;4999780;28;19994;-64
2021/12/03 03:31:30;;;;;;;;;;;;;;;1.33;100.00;98547.56;5003016;28;20354;-64
2021/12/03 03:33:56;;;;;;;;;;;;;;;1.65;100.00;98547.47;5002031;28;19928;-65
2021/12/03 03:36:21;;;;;;;;;;;;;;;1.04;100.00;98537.47;5002451;28;20986;-65
2021/12/03 03:38:46;;;;;;;;;;;;;;;1.49;100.00;98540.75;5002678;28;20008;-64
2021/12/03 03:41:12;;;;;;;;;;;;;;;1.20;100.00;98528.97;5002096;28;19922;-64
2021/12/03 03:43:39;;;;;;;;;;;;;;;1.45;100.00;98523.84;5002438;28;19929;-65
2021/12/03 03:46:04;;;;;;;;;;;;;;;1.07;100.00;98512.09;5002680;28;19918;-65
2021/12/03 03:48:29;;;;;;;;;;;;;;;1.14;100.00;98513.78;5006716;28;20007;-65
2021/12/03 03:50:55;;;;;;;;;;;;;;;1.52;100.00;98519.59;5007690;28;19932;-65
2021/12/03 03:53:21;;;;;;;;;;;;;;;1.33;100.00;98523.88;5006553;28;19960;-65
2021/12/03 03:55:50;;;;;;;;;;;;;;;1.55;100.00;98524.66;5005867;28;20437;-65
2021/12/03 03:58:15;;;;;;;;;;;;;;;1.49;100.00;98517.91;5005670;28;20060;-65
2021/12/03 04:00:48;;;;;;;;;;;;;;;1.83;100.00;98515.25;5006822;28;19929;-65
2021/12/03 04:03:16;;;;;;;;;;;;;;;1.74;100.00;98520.38;5005752;28;20438;-65
2021/12/03 04:05:42;;;;;;;;;;;;;;;2.02;100.00;98511.75;5007679;28;20369;-65
2021/12/03 04:08:07;;;;;;;;;;;;;;;1.28;100.00;98500.19;5003393;28;19986;-65
2021/12/03 04:10:33;;;;;;;;;;;;;;;1.78;100.00;98491.56;5006459;28;19921;-65
2021/12/03 04:12:58;;;;;;;;;;;;;;;2.06;100.00;98492.25;5007490;28;19963;-65
2021/12/03 04:15:27;;;;;;;;;;;;;;;2.25;100.00;98485.34;5005845;28;19964;-65
2021/12/03 04:17:55;;;;;;;;;;;;;;;2.37;100.00;98487.81;4989327;28;19921;-65
2021/12/03 04:20:23;;;;;;;;;;;;;;;2.31;100.00;98482.78;5006314;28;19917;-65
2021/12/03 04:22:49;;;;;;;;;;;;;;;2.20;100.00;98475.22;5007093;28;19921;-65
2021/12/03 04:25:21;;;;;;;;;;;;;;;2.58;100.00;98473.25;4999562;28;19967;-65
2021/12/03 04:27:47;;;;;;;;;;;;;;;2.52;100.00;98461.44;5006261;28;19966;-65
2021/12/03 04:30:15;;;;;;;;;;;;;;;2.58;100.00;98456.31;5006387;28;19921;-65
2021/12/03 04:32:40;;;;;;;;;;;;;;;2.79;100.00;98450.19;5005536;28;20725;-65
2021/12/03 04:35:06;;;;;;;;;;;;;;;2.76;100.00;98444.28;5006062;28;20035;-65
2021/12/03 04:37:32;;;;;;;;;;;;;;;2.75;100.00;98433.25;4997944;28;19925;-65
2021/12/03 04:39:57;;;;;;;;;;;;;;;2.61;100.00;98433.41;5005845;28;19983;-65
2021/12/03 04:42:23;;;;;;;;;;;;;;;2.69;100.00;98433.31;4998613;28;19928;-65
2021/12/03 04:44:48;;;;;;;;;;;;;;;2.34;100.00;98431.09;5006407;28;19917;-65
2021/12/03 04:47:14;;;;;;;;;;;;;;;2.24;100.00;98432.88;5007019;28;20314;-65
2021/12/03 04:49:39;;;;;;;;;;;;;;;2.31;100.00;98447.22;5007371;28;19914;-65
2021/12/03 04:52:05;;;;;;;;;;;;;;;2.24;100.00;98443.88;5005397;28;19956;-65
2021/12/03 04:54:30;;;;;;;;;;;;;;;2.48;100.00;98450.44;5005928;28;19932;-65
2021/12/03 04:56:56;;;;;;;;;;;;;;;2.18;100.00;98451.53;4999416;28;20419;-65
2021/12/03 04:59:21;;;;;;;;;;;;;;;2.18;100.00;98440.53;5005557;28;19928;-65
2021/12/03 05:01:47;;;;;;;;;;;;;;;2.29;100.00;98436.22;5003873;28;20395;-65
2021/12/03 05:04:12;;;;;;;;;;;;;;;2.15;100.00;98430.41;5005571;28;19982;-65
2021/12/03 05:09:22;;;;;;;;;;;;;;;2.26;100.00;98438.78;5006882;28;19971;-65
2021/12/03 05:11:50;;;;;;;;;;;;;;;2.35;100.00;98432.78;4999095;28;19921;-66
2021/12/03 05:14:16;;;;;;;;;;;;;;;2.33;100.00;98437.88;5003424;28;20360;-67
2021/12/03 05:16:41;;;;;;;;;;;;;;;2.40;100.00;98436.97;5008096;28;19989;-66
2021/12/03 05:19:06;;;;;;;;;;;;;;;2.57;100.00;98441.06;5009016;28;20003;-68
2021/12/03 05:21:32;;;;;;;;;;;;;;;2.51;100.00;98450.44;5005992;28;19917;-67
2021/12/03 05:23:58;;;;;;;;;;;;;;;1.98;100.00;98443.19;5009637;28;20375;-68
2021/12/03 05:26:23;;;;;;;;;;;;;;;1.91;100.00;98457.63;5010397;28;20394;-68
2021/12/03 05:28:49;;;;;;;;;;;;;;;2.06;100.00;98467.69;5009681;28;19968;-69
2021/12/03 05:31:15;;;;;;;;;;;;;;;2.00;100.00;98472.81;5007978;28;19925;-68
2021/12/03 05:33:40;;;;;;;;;;;;;;;2.05;100.00;98481.28;5010135;28;20000;-67
2021/12/03 05:36:06;;;;;;;;;;;;;;;2.05;100.00;98476.19;5010449;28;19914;-67
2021/12/03 05:38:31;;;;;;;;;;;;;;;1.76;100.00;98475.50;5008551;28;19918;-68
2021/12/03 05:40:56;;;;;;;;;;;;;;;1.86;100.00;98490.66;5008521;28;20286;-67
2021/12/03 05:43:22;;;;;;;;;;;;;;;2.01;100.00;98506.69;5006708;28;19972;-67
2021/12/03 05:45:47;;;;;;;;;;;;;;;1.88;100.00;98508.44;5008745;28;19929;-67
2021/12/03 05:48:13;;;;;;;;;;;;;;;1.97;100.00;98523.63;5009651;28;19914;-67
2021/12/03 05:50:39;;;;;;;;;;;;;;;1.88;100.00;98524.50;5009581;28;19917;-68
2021/12/03 05:53:05;;;;;;;;;;;;;;;1.88;100.00;98533.84;5009294;28;19921;-68
2021/12/03 05:55:30;;;;;;;;;;;;;;;2.35;98.23;98544.56;5004809;28;20378;-67
2021/12/03 05:57:56;;;;;;;;;;;;;;;2.02;100.00;98542.22;5007107;28;19921;-67
2021/12/03 06:00:23;;;;;;;;;;;;;;;2.15;100.00;98537.94;5006276;28;20394;-68
2021/12/03 06:02:49;;;;;;;;;;;;;;;1.92;100.00;98529.59;5006956;28;20000;-67
2021/12/03 06:05:14;;;;;;;;;;;;;;;2.42;100.00;98525.91;5007621;28;20462;-67
2021/12/03 06:07:40;;;;;;;;;;;;;;;2.54;100.00;98530.06;5006677;28;20441;-68
2021/12/03 06:10:06;;;;;;;;;;;;;;;2.38;100.00;98514.91;5006103;28;20386;-67
2021/12/03 06:12:31;;;;;;;;;;;;;;;2.21;100.00;98511.63;5002974;28;20008;-68
2021/12/03 06:14:56;;;;;;;;;;;;;;;2.12;100.00;98506.59;5005329;28;20083;-67
2021/12/03 06:17:22;;;;;;;;;;;;;;;2.12;100.00;98506.59;5007228;28;19967;-67
2021/12/03 06:19:47;;;;;;;;;;;;;;;1.85;100.00;98509.31;5006922;28;19957;-67
2021/12/03 06:22:13;;;;;;;;;;;;;;;1.82;100.00;98513.53;5006537;28;19972;-67
2021/12/03 06:24:38;;;;;;;;;;;;;;;1.75;100.00;98512.72;5008733;28;20382;-67
2021/12/03 06:27:04;;;;;;;;;;;;;;;1.65;100.00;98526.31;5007954;28;20458;-67
2021/12/03 06:29:30;;;;;;;;;;;;;;;1.73;99.84;98522.03;5004590;28;19913;-66
2021/12/03 06:31:55;;;;;;;;;;;;;;;1.97;98.07;98518.53;5003919;28;19960;-66
2021/12/03 06:34:20;;;;;;;;;;;;;;;2.23;100.00;98522.63;5002924;28;19957;-67
2021/12/03 06:36:46;;;;;;;;;;;;;;;2.06;100.00;98521.03;5004176;28;19926;-66
2021/12/03 06:39:11;;;;;;;;;;;;;;;2.29;100.00;98513.28;5004447;28;19917;-66
2021/12/03 06:41:36;;;;;;;;;;;;;;;2.00;100.00;98518.53;5004292;28;19975;-67
2021/12/03 06:44:03;;;;;;;;;;;;;;;2.08;100.00;98510.88;5005324;28;20061;-65
2021/12/03 06:46:30;;;;;;;;;;;;;;;1.86;100.00;98516.06;5003855;28;19918;-66
2021/12/03 06:48:55;;;;;;;;;;;;;;;2.17;100.00;98515.06;5005655;28;19921;-65
2021/12/03 06:51:21;;;;;;;;;;;;;;;1.99;100.00;98521.94;5004942;28;19924;-65
2021/12/03 06:53:56;;;;;;;;;;;;;;;1.96;100.00;98521.94;4992384;28;20107;-65
2021/12/03 06:56:23;;;;;;;;;;;;;;;2.22;100.00;98524.34;5004344;28;19932;-66
2021/12/03 06:58:48;;;;;;;;;;;;;;;1.94;100.00;98521.13;5005612;28;19920;-66
2021/12/03 07:01:14;;;;;;;;;;;;;;;2.13;100.00;98528.63;5004511;28;20025;-65
2021/12/03 07:03:39;;;;;;;;;;;;;;;2.18;100.00;98526.91;5004259;28;19966;-66
2021/12/03 07:06:04;;;;;;;;;;;;;;;2.39;99.55;98526.75;5005369;28;19918;-65
2021/12/03 07:08:33;;;;;;;;;;;;;;;2.02;100.00;98526.16;4998244;28;19922;-65
2021/12/03 07:11:02;;;;;;;;;;;;;;;2.06;99.77;98522.75;5010512;28;19918;-66
2021/12/03 07:13:30;;;;;;;;;;;;;;;2.06;98.60;98528.66;4991832;28;20020;-65
2021/12/03 07:15:56;;;;;;;;;;;;;;;2.19;99.44;98531.13;5009655;28;19919;-66
2021/12/03 07:18:21;;;;;;;;;;;;;;;2.34;98.85;98523.41;5009277;28;20008;-65
2021/12/03 07:20:47;;;;;;;;;;;;;;;2.30;98.84;98524.28;5010475;28;19972;-66
2021/12/03 07:23:12;;;;;;;;;;;;;;;2.30;100.00;98516.66;5009467;28;19917;-66
2021/12/03 07:25:37;;;;;;;;;;;;;;;2.68;100.00;98513.00;5009828;28;19956;-66
2021/12/03 07:28:03;;;;;;;;;;;;;;;2.44;100.00;98507.25;5010509;28;20855;-66
2021/12/03 07:30:31;;;;;;;;;;;;;;;2.62;100.00;98510.50;5010689;28;19917;-66
2021/12/03 07:32:56;;;;;;;;;;;;;;;2.23;100.00;98512.47;5010086;28;19938;-66
2021/12/03 07:35:22;;;;;;;;;;;;;;;2.35;100.00;98502.25;5005547;28;20312;-66
2021/12/03 07:37:47;;;;;;;;;;;;;;;2.51;100.00;98506.34;5009879;28;19921;-66
2021/12/03 07:40:13;;;;;;;;;;;;;;;2.48;100.00;98501.28;5009558;28;19918;-66
2021/12/03 07:42:41;;;;;;;;;;;;;;;2.42;100.00;98491.16;5009536;28;19967;-66
2021/12/03 07:45:08;;;;;;;;;;;;;;;2.54;100.00;98484.31;5010531;28;19918;-66
2021/12/03 07:47:34;;;;;;;;;;;;;;;2.39;100.00;98486.09;5009339;28;19964;-66
2021/12/03 07:49:59;;;;;;;;;;;;;;;2.13;100.00;98483.75;5009500;28;19920;-66
2021/12/03 07:52:25;;;;;;;;;;;;;;;2.53;100.00;98477.53;5009945;28;20397;-65
2021/12/03 07:54:51;;;;;;;;;;;;;;;2.43;100.00;98481.84;5008203;28;20397;-66
2021/12/03 07:57:16;;;;;;;;;;;;;;;2.92;100.00;98482.28;5009143;28;19918;-65
2021/12/03 07:59:45;;;;;;;;;;;;;;;2.32;100.00;98479.38;5015703;28;19961;-65
2021/12/03 08:02:11;;;;;;;;;;;;;;;2.99;100.00;98484.72;5009903;28;20022;-65
2021/12/03 08:04:36;;;;;;;;;;;;;;;3.12;100.00;98478.66;5009488;28;19972;-66
2021/12/03 08:07:01;;;;;;;;;;;;;;;2.90;100.00;98467.88;5008645;28;19917;-53
2021/12/03 08:09:27;;;;;;;;;;;;;;;3.03;100.00;98458.41;4985198;28;19917;-68
2021/12/03 08:11:52;;;;;;;;;;;;;;;3.32;100.00;98465.72;5002225;28;19949;-65
2021/12/03 08:14:18;;;;;;;;;;;;;;;2.48;100.00;98470.78;5002602;28;19936;-68
2021/12/03 08:16:46;;;;;;;;;;;;;;;2.95;100.00;98478.00;5001608;28;20980;-68
2021/12/03 08:19:12;;;;;;;;;;;;;;;2.54;100.00;98481.78;5002147;28;19963;-68
2021/12/03 08:21:38;;;;;;;;;;;;;;;2.46;100.00;98497.94;5000239;28;20012;-68
2021/12/03 08:24:04;;;;;;;;;;;;;;;2.64;100.00;98503.69;5001466;28;19987;-68
2021/12/03 08:26:29;;;;;;;;;;;;;;;2.48;100.00;98501.28;4996969;28;20664;-67
2021/12/03 08:28:55;;;;;;;;;;;;;;;2.78;100.00;98512.03;5001426;28;19992;-68
2021/12/03 08:31:20;;;;;;;;;;;;;;;2.84;100.00;98508.63;5000876;28;19918;-67
2021/12/03 08:33:55;;;;;;;;;;;;;;;2.92;100.00;98512.78;5001996;28;19924;-67
2021/12/03 08:36:32;;;;;;;;;;;;;;;2.30;100.00;98509.03;5001486;28;19964;-67
2021/12/03 08:38:57;;;;;;;;;;;;;;;2.59;100.00;98513.06;5000972;28;20299;-68
2021/12/03 08:41:26;;;;;;;;;;;;;;;2.88;100.00;98520.47;5001069;28;19918;-68
2021/12/03 08:43:52;;;;;;;;;;;;;;;2.68;100.00;98523.16;5001986;28;20930;-68
2021/12/03 08:46:31;;;;;;;;;;;;;;;2.90;99.54;98529.75;5000864;28;19940;-68
2021/12/03 08:49:06;;;;;;;;;;;;;;;2.67;100.00;98521.50;5000654;28;20016;-68
2021/12/03 08:51:48;;;;;;;;;;;;;;;2.92;99.74;98522.97;5001030;28;20458;-67
2021/12/03 08:56:57;;;;;;;;;;;;;;;3.27;100.00;98514.13;5001272;28;20531;-68
2021/12/03 08:59:23;;;;;;;;;;;;;;;3.06;100.00;98505.03;5000033;28;19953;-68
2021/12/03 09:01:48;;;;;;;;;;;;;;;2.88;100.00;98503.50;5001491;28;20004;-67
2021/12/03 09:04:14;;;;;;;;;;;;;;;2.82;100.00;98507.78;5000418;28;20072;-67
2021/12/03 09:06:40;;;;;;;;;;;;;;;2.72;100.00;98496.88;5000836;28;19917;-67
2021/12/03 09:09:08;;;;;;;;;;;;;;;3.33;100.00;98503.91;5001028;28;20755;-68
2021/12/03 09:11:34;;;;;;;;;;;;;;;3.34;100.00;98492.84;4999382;28;19996;-67
2021/12/03 09:14:03;;;;;;;;;;;;;;;3.08;100.00;98492.28;5000909;28;19914;-68
2021/12/03 09:16:28;;;;;;;;;;;;;;;3.11;100.00;98482.09;4998768;28;19917;-68
2021/12/03 09:18:54;;;;;;;;;;;;;;;3.09;100.00;98476.16;5000398;28;19924;-69
2021/12/03 09:21:32;;;;;;;;;;;;;;;3.13;100.00;98473.56;4985364;28;20056;-68
2021/12/03 09:26:25;;;;;;;;;;;;;;;3.04;100.00;98480.47;5001032;28;19918;-68
2021/12/03 09:28:57;;;;;;;;;;;;;;;3.25;100.00;98487.03;5000207;28;19967;-67
2021/12/03 09:31:22;;;;;;;;;;;;;;;3.59;100.00;98484.09;4999588;28;19925;-68
2021/12/03 09:33:50;;;;;;;;;;;;;;;3.63;100.00;98473.03;4998994;28;20206;-68
2021/12/03 09:36:16;;;;;;;;;;;;;;;3.64;100.00;98475.53;4999899;28;19943;-67
2021/12/03 09:38:41;;;;;;;;;;;;;;;3.56;100.00;98462.91;5000507;28;20358;-68
2021/12/03 09:41:14;;;;;;;;;;;;;;;3.70;100.00;98451.69;4998823;28;19917;-69
2021/12/03 09:43:41;;;;;;;;;;;;;;;3.73;100.00;98447.41;5000043;28;20390;-67
2021/12/03 09:46:24;;;;;;;;;;;;;;;3.29;100.00;98438.63;4984409;28;19917;-68
2021/12/03 09:51:33;;;;;;;;;;;;;;;3.22;100.00;98433.63;4993967;28;19924;-67
2021/12/03 09:56:50;;;;;;;;;;;;;;;3.54;100.00;98440.88;4999953;28;20428;-67
2021/12/03 10:02:10;;;;;;;;;;;;;;;3.48;100.00;98423.97;4998535;28;20393;-68
2021/12/03 10:28:59;;;;;;;;;;;;;;;3.90;100.00;98377.53;4999366;28;19917;-68
2021/12/03 10:41:58;;;;;;;;;;;;;;;3.30;100.00;98360.56;4998486;28;19943;-68
2021/12/03 10:47:28;;;;;;;;;;;;;;;3.41;100.00;98361.28;5000415;28;19925;-68
2021/12/03 10:52:46;;;;;;;;;;;;;;;3.59;100.00;98355.09;4998432;28;19983;-67
2021/12/03 11:08:08;;;;;;;;;;;;;;;3.70;100.00;98324.38;4999145;28;19922;-67
2021/12/03 11:31:27;;;;;;;;;;;;;;;3.65;100.00;98275.22;5004869;28;19968;-66
2021/12/03 13:11:41;;;;;;;;;;;;;;;4.37;100.00;98131.22;4999699;28;19971;-67
2021/12/03 13:20:21;;;;;;;;;;;;;;;4.32;100.00;98120.31;5006521;28;19924;-66
2021/12/03 13:23:08;;;;;;;;;;;;;;;3.34;100.00;98118.75;5000949;28;19917;-67
2021/12/03 13:34:40;;;;;;;;;;;;;;;3.78;100.00;98096.72;4996962;28;19921;-67
2021/12/03 14:06:52;;;;;;;;;;;;;;;4.40;100.00;98044.47;4901051;29;19915;-67
2021/12/03 14:44:26;;;;;;;;;;;;;;;4.19;100.00;98033.91;4887866;29;19919;-67
2021/12/03 14:55:26;;;;;;;;;;;;;;;3.74;100.00;98031.47;4900413;29;19935;-67
2021/12/03 14:57:59;;;;;;;;;;;;;;;3.69;100.00;98043.44;4887537;29;20006;-67
2021/12/03 15:00:36;;;;;;;;;;;;;;;4.36;100.00;98036.09;4888625;29;20607;-67
2021/12/03 15:17:00;;;;;;;;;;;;;;;3.83;100.00;98024.50;4999984;28;19913;-67
2021/12/03 15:24:17;;;;;;;;;;;;;;;4.03;100.00;98021.53;4999324;28;19936;-67
2021/12/03 15:26:46;;;;;;;;;;;;;;;4.22;100.00;98009.22;5000137;28;19918;-67
2021/12/03 15:32:06;;;;;;;;;;;;;;;4.19;100.00;97992.28;4999407;28;20290;-67
2021/12/03 15:37:07;;;;;;;;;;;;;;;4.21;100.00;97987.16;4999877;28;19921;-68
2021/12/03 15:55:57;;;;;;;;;;;;;;;3.94;100.00;97959.72;4999085;28;20035;-68
2021/12/03 15:58:34;;;;;;;;;;;;;;;3.89;100.00;97964.06;4998905;28;19925;-67
2021/12/03 16:12:35;;;;;;;;;;;;;;;3.79;100.00;97967.72;5001481;28;19921;-68
2021/12/03 16:18:23;;;;;;;;;;;;;;;3.73;100.00;97978.00;5000691;28;19944;-66
2021/12/03 16:21:00;;;;;;;;;;;;;;;3.94;100.00;97987.72;4997063;28;19940;-66
2021/12/03 16:23:48;;;;;;;;;;;;;;;4.01;100.00;97995.25;4996839;28;19930;-66
2021/12/03 16:53:02;;;;;;;;;;;;;;;3.67;100.00;97953.53;4997594;28;20345;-66
2021/12/03 16:55:27;;;;;;;;;;;;;;;3.56;100.00;97955.47;4996670;28;19925;-66
2021/12/03 16:57:54;;;;;;;;;;;;;;;3.76;100.00;97955.03;4995990;28;20579;-66
2021/12/03 17:00:28;;;;;;;;;;;;;;;3.65;100.00;97954.41;4995973;28;20434;-66
2021/12/03 17:13:55;;;;;;;;;;;;;;;3.90;100.00;97949.63;4942931;28;19922;-66
2021/12/03 17:29:32;;;;;;;;;;;;;;;3.81;100.00;97944.75;4948037;28;19961;-66
2021/12/03 17:46:26;;;;;;;;;;;;;;;3.57;100.00;97931.66;4921243;29;19929;-66
2021/12/03 17:48:48;;;;;;;;;;;;;;;3.83;100.00;97927.72;4931365;29;19929;-67
2021/12/03 17:51:36;;;;;;;;;;;;;;;3.78;100.00;97933.75;4934878;28;19930;-66
2021/12/03 17:54:12;;;;;;;;;;;;;;;3.87;100.00;97934.44;4921344;29;19934;-69
2021/12/03 17:56:42;;;;;;;;;;;;;;;3.81;100.00;97934.56;4920568;28;20400;-66
2021/12/03 17:59:19;;;;;;;;;;;;;;;3.51;100.00;97941.97;4934194;29;20387;-66
2021/12/03 18:17:49;;;;;;;;;;;;;;;3.95;100.00;97930.00;4972441;28;19944;-67
2021/12/03 18:58:01;;;;;;;;;;;;;;;3.82;100.00;97891.22;4918012;29;19927;-67
2021/12/03 19:00:29;;;;;;;;;;;;;;;3.82;100.00;97873.41;4900296;29;20479;-66
2021/12/03 19:02:56;;;;;;;;;;;;;;;3.67;100.00;97864.44;4915215;28;20469;-68
2021/12/03 19:08:11;;;;;;;;;;;;;;;3.71;100.00;97850.72;4916781;28;19930;-67
2021/12/03 19:10:44;;;;;;;;;;;;;;;3.86;100.00;97852.09;4992477;28;20327;-68
2021/12/03 19:13:14;;;;;;;;;;;;;;;3.72;100.00;97847.31;4993288;28;19921;-67
2021/12/03 19:15:42;;;;;;;;;;;;;;;4.03;100.00;97854.22;4992363;28;19921;-67
2021/12/03 19:18:07;;;;;;;;;;;;;;;3.78;100.00;97838.69;4982159;28;19928;-68
2021/12/03 19:20:35;;;;;;;;;;;;;;;3.87;100.00;97827.47;4991968;28;19921;-68
2021/12/03 19:23:00;;;;;;;;;;;;;;;3.76;100.00;97831.09;4992171;28;19921;-68
2021/12/03 19:25:26;;;;;;;;;;;;;;;3.87;100.00;97835.09;4993765;28;19921;-67
2021/12/03 19:27:51;;;;;;;;;;;;;;;4.06;100.00;97832.94;4994953;28;19921;-68
2021/12/03 19:30:17;;;;;;;;;;;;;;;4.11;100.00;97842.16;4993092;28;19921;-67
2021/12/03 19:32:43;;;;;;;;;;;;;;;4.05;100.00;97821.91;4997679;28;20378;-67
2021/12/03 19:35:09;;;;;;;;;;;;;;;3.93;100.00;97817.97;4998688;28;20008;-68
2021/12/03 19:37:35;;;;;;;;;;;;;;;3.97;100.00;97813.66;4999950;28;19922;-68
2021/12/03 19:40:04;;;;;;;;;;;;;;;3.80;100.00;97797.94;4999302;28;19943;-68
2021/12/03 19:42:39;;;;;;;;;;;;;;;4.10;100.00;97804.78;4999368;28;19917;-68
2021/12/03 19:45:07;;;;;;;;;;;;;;;3.92;100.00;97801.03;4998562;28;19921;-67
2021/12/03 19:47:47;;;;;;;;;;;;;;;4.12;100.00;97808.13;4996041;28;19922;-66
2021/12/03 19:53:01;;;;;;;;;;;;;;;3.93;100.00;97812.03;4997199;28;20063;-67
2021/12/03 19:55:26;;;;;;;;;;;;;;;3.99;100.00;97801.69;4998103;28;20457;-68
2021/12/03 19:57:52;;;;;;;;;;;;;;;3.75;100.00;97809.06;4998738;28;19957;-68
2021/12/03 20:00:18;;;;;;;;;;;;;;;3.90;100.00;97805.31;4996660;28;19921;-67
2021/12/03 20:02:43;;;;;;;;;;;;;;;4.00;100.00;97798.28;4997026;28;19967;-66
2021/12/03 20:05:08;;;;;;;;;;;;;;;4.08;100.00;97795.53;4995295;28;19925;-67
2021/12/03 20:07:34;;;;;;;;;;;;;;;4.06;100.00;97789.63;4999753;28;19921;-66
2021/12/03 20:10:10;;;;;;;;;;;;;;;3.89;100.00;97783.25;4999487;28;19948;-67
2021/12/03 20:12:36;;;;;;;;;;;;;;;4.23;100.00;97784.94;4999688;28;20314;-67
2021/12/03 20:15:07;;;;;;;;;;;;;;;4.18;100.00;97782.50;4999235;28;19921;-68
2021/12/03 20:17:36;;;;;;;;;;;;;;;4.34;100.00;97784.66;4996472;28;19921;-68
2021/12/03 20:20:03;;;;;;;;;;;;;;;4.18;100.00;97785.06;4996999;28;19922;-67
2021/12/03 20:27:47;;;;;;;;;;;;;;;4.09;100.00;97792.13;4999688;28;20304;-67
2021/12/03 20:30:24;;;;;;;;;;;;;;;4.10;100.00;97794.59;4997592;28;19947;-66